sensor_id;sensor_type;location;lat;lon;timestamp;pressure;altitude;pressure_sealevel;temperature;humidity
40954;BME280;26686;50.130;8.710;2023-07-22T00:04:20;100025.03;;;18.27;72.64
40954;BME280;26686;50.130;8.710;2023-07-22T00:09:21;100025.38;;;18.24;73.04
40954;BME280;26686;50.130;8.710;2023-07-22T00:14:22;100025.22;;;18.26;71.90
40954;BME280;26686;50.130;8.710;2023-07-22T00:19:24;100034.47;;;18.23;73.22
40954;BME280;26686;50.130;8.710;2023-07-22T00:24:25;100027.75;;;18.19;73.17
40954;BME280;26686;50.130;8.710;2023-07-22T00:29:27;100038.91;;;18.16;72.37
40954;BME280;26686;50.130;8.710;2023-07-22T00:34:28;100025.97;;;18.11;74.05
40954;BME280;26686;50.130;8.710;2023-07-22T00:39:30;100032.19;;;18.12;73.35
40954;BME280;26686;50.130;8.710;2023-07-22T00:44:31;100031.25;;;18.05;74.05
40954;BME280;26686;50.130;8.710;2023-07-22T00:49:34;100019.97;;;18.01;73.28
40954;BME280;26686;50.130;8.710;2023-07-22T00:54:35;100036.97;;;18.01;73.88
40954;BME280;26686;50.130;8.710;2023-07-22T00:59:39;100023.84;;;17.98;73.43
40954;BME280;26686;50.130;8.710;2023-07-22T01:04:40;100023.69;;;18.00;73.10
40954;BME280;26686;50.130;8.710;2023-07-22T01:09:42;100030.91;;;17.99;73.26
40954;BME280;26686;50.130;8.710;2023-07-22T01:14:44;100023.19;;;17.96;74.13
40954;BME280;26686;50.130;8.710;2023-07-22T01:19:46;100023.19;;;17.96;73.45
40954;BME280;26686;50.130;8.710;2023-07-22T01:24:48;100022.72;;;17.93;74.34
40954;BME280;26686;50.130;8.710;2023-07-22T01:29:52;100021.88;;;17.92;74.53
40954;BME280;26686;50.130;8.710;2023-07-22T01:34:54;100025.41;;;17.93;75.30
40954;BME280;26686;50.130;8.710;2023-07-22T01:39:55;100022.03;;;17.91;75.75
40954;BME280;26686;50.130;8.710;2023-07-22T01:44:58;100026.75;;;17.89;75.19
40954;BME280;26686;50.130;8.710;2023-07-22T01:50:00;100026.44;;;17.83;75.38
40954;BME280;26686;50.130;8.710;2023-07-22T01:55:02;100024.75;;;17.82;75.95
40954;BME280;26686;50.130;8.710;2023-07-22T02:00:06;100023.25;;;17.80;76.03
40954;BME280;26686;50.130;8.710;2023-07-22T02:05:09;100027.66;;;17.73;76.08
40954;BME280;26686;50.130;8.710;2023-07-22T02:10:12;100018.75;;;17.72;76.57
40954;BME280;26686;50.130;8.710;2023-07-22T02:15:13;100024.31;;;17.71;76.94
40954;BME280;26686;50.130;8.710;2023-07-22T02:20:15;100029.88;;;17.69;75.81
40954;BME280;26686;50.130;8.710;2023-07-22T02:25:16;100027.53;;;17.66;76.72
40954;BME280;26686;50.130;8.710;2023-07-22T02:30:17;100029.41;;;17.57;76.01
40954;BME280;26686;50.130;8.710;2023-07-22T02:35:19;100027.44;;;17.51;75.23
40954;BME280;26686;50.130;8.710;2023-07-22T02:40:20;100022.56;;;17.46;75.33
40954;BME280;26686;50.130;8.710;2023-07-22T02:45:22;100017.88;;;17.40;75.73
40954;BME280;26686;50.130;8.710;2023-07-22T02:50:23;100036.91;;;17.39;75.87
40954;BME280;26686;50.130;8.710;2023-07-22T02:55:25;100036.38;;;17.35;77.06
40954;BME280;26686;50.130;8.710;2023-07-22T03:00:26;100039.75;;;17.37;77.04
40954;BME280;26686;50.130;8.710;2023-07-22T03:05:29;100032.56;;;17.29;77.43
40954;BME280;26686;50.130;8.710;2023-07-22T03:10:31;100032.72;;;17.28;77.17
40954;BME280;26686;50.130;8.710;2023-07-22T03:15:32;100042.63;;;17.27;77.25
40954;BME280;26686;50.130;8.710;2023-07-22T03:20:34;100035.25;;;17.21;77.85
40954;BME280;26686;50.130;8.710;2023-07-22T03:25:35;100037.94;;;17.21;78.19
40954;BME280;26686;50.130;8.710;2023-07-22T03:30:36;100036.44;;;17.19;78.78
40954;BME280;26686;50.130;8.710;2023-07-22T03:35:38;100049.03;;;17.18;78.68
40954;BME280;26686;50.130;8.710;2023-07-22T03:40:42;100048.03;;;17.19;78.90
40954;BME280;26686;50.130;8.710;2023-07-22T03:45:43;100047.34;;;17.17;78.59
40954;BME280;26686;50.130;8.710;2023-07-22T03:50:45;100046.03;;;17.13;78.77
40954;BME280;26686;50.130;8.710;2023-07-22T03:55:47;100043.00;;;17.08;78.49
40954;BME280;26686;50.130;8.710;2023-07-22T04:00:49;100045.72;;;17.08;78.97
40954;BME280;26686;50.130;8.710;2023-07-22T04:05:56;100053.44;;;17.11;79.28
40954;BME280;26686;50.130;8.710;2023-07-22T04:10:58;100054.13;;;17.05;78.68
40954;BME280;26686;50.130;8.710;2023-07-22T04:15:59;100047.06;;;16.95;78.57
40954;BME280;26686;50.130;8.710;2023-07-22T04:21:01;100047.75;;;16.89;78.29
40954;BME280;26686;50.130;8.710;2023-07-22T04:26:03;100045.72;;;16.91;78.65
40954;BME280;26686;50.130;8.710;2023-07-22T04:31:08;100044.22;;;16.89;78.96
40954;BME280;26686;50.130;8.710;2023-07-22T04:36:11;100056.00;;;16.88;79.40
40954;BME280;26686;50.130;8.710;2023-07-22T04:41:12;100067.88;;;16.85;78.34
40954;BME280;26686;50.130;8.710;2023-07-22T04:46:13;100063.19;;;16.87;78.76
40954;BME280;26686;50.130;8.710;2023-07-22T04:51:15;100065.88;;;16.87;78.83
40954;BME280;26686;50.130;8.710;2023-07-22T04:56:16;100065.06;;;16.87;78.74
40954;BME280;26686;50.130;8.710;2023-07-22T05:01:18;100063.03;;;16.97;78.86
40954;BME280;26686;50.130;8.710;2023-07-22T05:06:19;100059.84;;;17.02;78.85
40954;BME280;26686;50.130;8.710;2023-07-22T05:11:21;100057.47;;;17.07;78.44
40954;BME280;26686;50.130;8.710;2023-07-22T05:16:24;100049.41;;;17.15;78.84
40954;BME280;26686;50.130;8.710;2023-07-22T05:21:26;100058.47;;;17.22;78.97
40954;BME280;26686;50.130;8.710;2023-07-22T05:26:27;100061.81;;;17.24;79.28
40954;BME280;26686;50.130;8.710;2023-07-22T05:31:29;100061.81;;;17.24;78.53
40954;BME280;26686;50.130;8.710;2023-07-22T05:36:31;100068.88;;;17.25;77.92
40954;BME280;26686;50.130;8.710;2023-07-22T05:41:33;100084.31;;;17.23;78.34
40954;BME280;26686;50.130;8.710;2023-07-22T05:46:34;100077.59;;;17.27;78.96
40954;BME280;26686;50.130;8.710;2023-07-22T05:51:36;100084.47;;;17.38;78.85
40954;BME280;26686;50.130;8.710;2023-07-22T05:56:37;100077.38;;;17.45;78.63
40954;BME280;26686;50.130;8.710;2023-07-22T06:01:39;100082.59;;;17.55;78.63
40954;BME280;26686;50.130;8.710;2023-07-22T06:06:40;100084.72;;;17.68;78.43
40954;BME280;26686;50.130;8.710;2023-07-22T06:11:42;100080.97;;;17.77;77.73
40954;BME280;26686;50.130;8.710;2023-07-22T06:16:43;100065.34;;;17.73;77.55
40954;BME280;26686;50.130;8.710;2023-07-22T06:21:46;100082.13;;;17.91;76.41
40954;BME280;26686;50.130;8.710;2023-07-22T06:26:47;100085.59;;;18.08;76.49
40954;BME280;26686;50.130;8.710;2023-07-22T06:31:49;100082.69;;;18.18;73.84
40954;BME280;26686;50.130;8.710;2023-07-22T06:36:50;100087.66;;;18.29;72.50
40954;BME280;26686;50.130;8.710;2023-07-22T06:41:51;100090.59;;;18.43;73.68
40954;BME280;26686;50.130;8.710;2023-07-22T06:46:53;100106.84;;;18.58;73.86
40954;BME280;26686;50.130;8.710;2023-07-22T06:51:54;100104.06;;;18.66;71.56
40954;BME280;26686;50.130;8.710;2023-07-22T06:56:56;100097.13;;;18.71;71.35
40954;BME280;26686;50.130;8.710;2023-07-22T07:01:57;100099.06;;;18.86;70.85
40954;BME280;26686;50.130;8.710;2023-07-22T07:06:59;100103.19;;;18.97;70.02
40954;BME280;26686;50.130;8.710;2023-07-22T07:12:00;100099.16;;;19.16;69.88
40954;BME280;26686;50.130;8.710;2023-07-22T07:17:02;100108.47;;;19.28;67.13
40954;BME280;26686;50.130;8.710;2023-07-22T07:22:04;100100.19;;;19.45;67.36
40954;BME280;26686;50.130;8.710;2023-07-22T07:27:06;100088.28;;;19.54;66.75
40954;BME280;26686;50.130;8.710;2023-07-22T07:32:08;100099.25;;;19.67;64.75
40954;BME280;26686;50.130;8.710;2023-07-22T07:37:10;100105.13;;;19.86;64.94
40954;BME280;26686;50.130;8.710;2023-07-22T07:42:11;100102.78;;;19.98;62.20
40954;BME280;26686;50.130;8.710;2023-07-22T07:47:12;100108.19;;;19.98;59.05
40954;BME280;26686;50.130;8.710;2023-07-22T07:52:14;100107.53;;;20.10;60.80
40954;BME280;26686;50.130;8.710;2023-07-22T07:57:15;100109.84;;;20.13;58.77
40954;BME280;26686;50.130;8.710;2023-07-22T08:02:17;100106.41;;;20.20;60.18
40954;BME280;26686;50.130;8.710;2023-07-22T08:07:18;100102.72;;;20.27;60.74
40954;BME280;26686;50.130;8.710;2023-07-22T08:12:19;100105.09;;;20.16;60.06
40954;BME280;26686;50.130;8.710;2023-07-22T08:17:21;100109.31;;;20.03;59.17
40954;BME280;26686;50.130;8.710;2023-07-22T08:22:22;100098.22;;;19.98;60.53
40954;BME280;26686;50.130;8.710;2023-07-22T08:27:24;100105.59;;;20.04;61.00
40954;BME280;26686;50.130;8.710;2023-07-22T08:32:25;100110.28;;;20.32;60.99
40954;BME280;26686;50.130;8.710;2023-07-22T08:37:26;100099.75;;;20.59;61.02
40954;BME280;26686;50.130;8.710;2023-07-22T08:42:30;100095.19;;;20.81;59.60
40954;BME280;26686;50.130;8.710;2023-07-22T08:47:33;100093.75;;;20.85;58.47
40954;BME280;26686;50.130;8.710;2023-07-22T08:52:36;100087.84;;;21.25;58.89
40954;BME280;26686;50.130;8.710;2023-07-22T08:57:39;100084.28;;;21.52;55.27
40954;BME280;26686;50.130;8.710;2023-07-22T09:02:41;100075.34;;;21.59;53.50
40954;BME280;26686;50.130;8.710;2023-07-22T09:07:43;100078.13;;;21.72;50.54
40954;BME280;26686;50.130;8.710;2023-07-22T09:12:45;100069.84;;;21.80;50.99
40954;BME280;26686;50.130;8.710;2023-07-22T09:17:47;100075.59;;;22.05;50.41
40954;BME280;26686;50.130;8.710;2023-07-22T09:22:50;100071.66;;;22.21;49.48
40954;BME280;26686;50.130;8.710;2023-07-22T09:28:11;100066.09;;;22.36;49.28
40954;BME280;26686;50.130;8.710;2023-07-22T09:33:20;100065.41;;;22.28;47.23
40954;BME280;26686;50.130;8.710;2023-07-22T09:38:23;100056.66;;;22.19;48.34
40954;BME280;26686;50.130;8.710;2023-07-22T09:43:25;100065.56;;;22.06;46.39
40954;BME280;26686;50.130;8.710;2023-07-22T09:48:27;100058.72;;;22.10;48.13
40954;BME280;26686;50.130;8.710;2023-07-22T09:53:29;100051.28;;;22.32;48.70
40954;BME280;26686;50.130;8.710;2023-07-22T09:58:30;100051.72;;;22.42;47.91
40954;BME280;26686;50.130;8.710;2023-07-22T10:03:32;100039.03;;;22.76;45.46
40954;BME280;26686;50.130;8.710;2023-07-22T10:08:36;100047.97;;;22.90;45.36
40954;BME280;26686;50.130;8.710;2023-07-22T10:13:39;100035.28;;;22.91;42.57
40954;BME280;26686;50.130;8.710;2023-07-22T10:18:41;100029.63;;;22.92;44.33
40954;BME280;26686;50.130;8.710;2023-07-22T10:23:44;100034.63;;;22.75;43.45
40954;BME280;26686;50.130;8.710;2023-07-22T10:28:47;100034.84;;;22.60;45.17
40954;BME280;26686;50.130;8.710;2023-07-22T10:33:48;100021.25;;;22.47;45.34
40954;BME280;26686;50.130;8.710;2023-07-22T10:38:57;100018.16;;;22.37;45.77
40954;BME280;26686;50.130;8.710;2023-07-22T10:44:05;100013.56;;;22.51;46.29
40954;BME280;26686;50.130;8.710;2023-07-22T10:49:15;100009.56;;;22.80;45.43
40954;BME280;26686;50.130;8.710;2023-07-22T10:54:34;100000.38;;;23.08;45.02
40954;BME280;26686;50.130;8.710;2023-07-22T10:59:37;100007.91;;;22.99;43.51
40954;BME280;26686;50.130;8.710;2023-07-22T11:04:40;99999.75;;;23.12;44.65
40954;BME280;26686;50.130;8.710;2023-07-22T11:09:56;99985.50;;;23.30;42.82
40954;BME280;26686;50.130;8.710;2023-07-22T11:15:04;99985.47;;;23.37;44.17
40954;BME280;26686;50.130;8.710;2023-07-22T11:20:07;99989.81;;;23.52;43.83
40954;BME280;26686;50.130;8.710;2023-07-22T11:25:08;99971.41;;;23.60;40.75
40954;BME280;26686;50.130;8.710;2023-07-22T11:30:11;99968.13;;;23.45;40.11
40954;BME280;26686;50.130;8.710;2023-07-22T11:35:15;99968.63;;;23.28;40.99
40954;BME280;26686;50.130;8.710;2023-07-22T11:40:18;99956.50;;;23.24;40.11
40954;BME280;26686;50.130;8.710;2023-07-22T11:45:19;99952.38;;;23.15;41.06
40954;BME280;26686;50.130;8.710;2023-07-22T11:50:31;99950.69;;;23.14;40.21
40954;BME280;26686;50.130;8.710;2023-07-22T11:55:35;99947.38;;;23.12;41.39
40954;BME280;26686;50.130;8.710;2023-07-22T12:00:43;99945.22;;;23.27;41.54
40954;BME280;26686;50.130;8.710;2023-07-22T12:06:06;99946.31;;;23.58;40.92
40954;BME280;26686;50.130;8.710;2023-07-22T12:11:08;99930.75;;;23.79;39.38
40954;BME280;26686;50.130;8.710;2023-07-22T12:16:09;99914.75;;;23.64;40.53
40954;BME280;26686;50.130;8.710;2023-07-22T12:21:11;99912.91;;;23.58;39.96
40954;BME280;26686;50.130;8.710;2023-07-22T12:26:13;99920.06;;;23.45;40.21
40954;BME280;26686;50.130;8.710;2023-07-22T12:31:14;99914.44;;;23.40;40.91
40954;BME280;26686;50.130;8.710;2023-07-22T12:36:16;99928.44;;;23.44;41.09
40954;BME280;26686;50.130;8.710;2023-07-22T12:41:17;99925.06;;;23.48;41.76
40954;BME280;26686;50.130;8.710;2023-07-22T12:46:19;99913.34;;;23.55;41.49
40954;BME280;26686;50.130;8.710;2023-07-22T12:51:20;99912.38;;;23.74;40.79
40954;BME280;26686;50.130;8.710;2023-07-22T12:56:22;99896.91;;;23.75;41.24
40954;BME280;26686;50.130;8.710;2023-07-22T13:01:23;99906.72;;;23.76;41.00
40954;BME280;26686;50.130;8.710;2023-07-22T13:06:25;99903.13;;;23.82;41.76
40954;BME280;26686;50.130;8.710;2023-07-22T13:11:27;99893.19;;;23.69;40.75
40954;BME280;26686;50.130;8.710;2023-07-22T13:16:29;99888.66;;;23.56;40.75
40954;BME280;26686;50.130;8.710;2023-07-22T13:21:31;99881.78;;;23.54;41.10
40954;BME280;26686;50.130;8.710;2023-07-22T13:26:34;99880.53;;;23.56;40.01
40954;BME280;26686;50.130;8.710;2023-07-22T13:31:38;99872.38;;;23.56;41.34
40954;BME280;26686;50.130;8.710;2023-07-22T13:36:40;99881.03;;;23.72;41.86
40954;BME280;26686;50.130;8.710;2023-07-22T13:41:41;99871.25;;;23.71;42.01
40954;BME280;26686;50.130;8.710;2023-07-22T13:46:43;99862.16;;;23.90;41.68
40954;BME280;26686;50.130;8.710;2023-07-22T13:51:44;99847.91;;;23.95;41.82
40954;BME280;26686;50.130;8.710;2023-07-22T13:56:46;99850.44;;;24.15;40.44
40954;BME280;26686;50.130;8.710;2023-07-22T14:01:48;99847.91;;;24.20;40.32
40954;BME280;26686;50.130;8.710;2023-07-22T14:06:50;99845.19;;;24.20;39.52
40954;BME280;26686;50.130;8.710;2023-07-22T14:11:51;99836.22;;;24.38;38.90
40954;BME280;26686;50.130;8.710;2023-07-22T14:16:53;99830.78;;;24.38;38.05
40954;BME280;26686;50.130;8.710;2023-07-22T14:21:54;99829.69;;;24.39;37.08
40954;BME280;26686;50.130;8.710;2023-07-22T14:26:55;99814.59;;;24.43;34.84
40954;BME280;26686;50.130;8.710;2023-07-22T14:31:57;99820.94;;;24.56;36.03
40954;BME280;26686;50.130;8.710;2023-07-22T14:36:59;99813.94;;;24.66;35.06
40954;BME280;26686;50.130;8.710;2023-07-22T14:42:01;99818.72;;;24.71;34.63
40954;BME280;26686;50.130;8.710;2023-07-22T14:47:02;99815.78;;;24.73;35.02
40954;BME280;26686;50.130;8.710;2023-07-22T14:52:04;99802.91;;;24.80;35.25
40954;BME280;26686;50.130;8.710;2023-07-22T14:57:06;99814.13;;;24.72;34.47
40954;BME280;26686;50.130;8.710;2023-07-22T15:02:08;99808.28;;;24.68;34.96
40954;BME280;26686;50.130;8.710;2023-07-22T15:07:10;99792.47;;;24.77;34.93
40954;BME280;26686;50.130;8.710;2023-07-22T15:12:11;99792.66;;;24.82;34.77
40954;BME280;26686;50.130;8.710;2023-07-22T15:17:15;99784.03;;;24.66;33.63
40954;BME280;26686;50.130;8.710;2023-07-22T15:22:17;99793.41;;;24.70;34.18
40954;BME280;26686;50.130;8.710;2023-07-22T15:27:18;99780.25;;;24.67;33.60
40954;BME280;26686;50.130;8.710;2023-07-22T15:32:20;99787.38;;;24.68;33.28
40954;BME280;26686;50.130;8.710;2023-07-22T15:37:21;99785.69;;;24.67;33.10
40954;BME280;26686;50.130;8.710;2023-07-22T15:42:23;99796.13;;;24.70;32.91
40954;BME280;26686;50.130;8.710;2023-07-22T15:47:24;99792.63;;;24.63;32.56
40954;BME280;26686;50.130;8.710;2023-07-22T15:52:26;99781.75;;;24.63;32.88
40954;BME280;26686;50.130;8.710;2023-07-22T15:57:27;99776.94;;;24.65;32.73
40954;BME280;26686;50.130;8.710;2023-07-22T16:02:28;99772.31;;;24.66;33.47
40954;BME280;26686;50.130;8.710;2023-07-22T16:07:33;99768.53;;;24.67;33.11
40954;BME280;26686;50.130;8.710;2023-07-22T16:12:35;99763.69;;;24.69;32.89
40954;BME280;26686;50.130;8.710;2023-07-22T16:17:36;99753.84;;;24.68;32.62
40954;BME280;26686;50.130;8.710;2023-07-22T16:22:38;99755.63;;;24.62;31.92
40954;BME280;26686;50.130;8.710;2023-07-22T16:27:41;99752.13;;;24.55;32.78
40954;BME280;26686;50.130;8.710;2023-07-22T16:32:42;99763.59;;;24.57;32.78
40954;BME280;26686;50.130;8.710;2023-07-22T16:37:44;99760.75;;;24.52;33.43
40954;BME280;26686;50.130;8.710;2023-07-22T16:42:45;99756.81;;;24.48;32.88
40954;BME280;26686;50.130;8.710;2023-07-22T16:47:50;99758.94;;;24.46;33.04
40954;BME280;26686;50.130;8.710;2023-07-22T16:52:51;99746.84;;;24.42;33.78
40954;BME280;26686;50.130;8.710;2023-07-22T16:57:52;99749.19;;;24.38;33.27
40954;BME280;26686;50.130;8.710;2023-07-22T17:02:54;99744.56;;;24.39;32.95
40954;BME280;26686;50.130;8.710;2023-07-22T17:07:56;99746.25;;;24.40;33.48
40954;BME280;26686;50.130;8.710;2023-07-22T17:12:59;99731.66;;;24.34;34.34
40954;BME280;26686;50.130;8.710;2023-07-22T17:18:01;99742.91;;;24.38;33.56
40954;BME280;26686;50.130;8.710;2023-07-22T17:23:03;99732.47;;;24.34;33.85
40954;BME280;26686;50.130;8.710;2023-07-22T17:28:05;99725.00;;;24.30;33.78
40954;BME280;26686;50.130;8.710;2023-07-22T17:33:06;99730.28;;;24.25;33.89
40954;BME280;26686;50.130;8.710;2023-07-22T17:38:08;99728.84;;;24.22;34.34
40954;BME280;26686;50.130;8.710;2023-07-22T17:43:10;99723.03;;;24.18;33.64
40954;BME280;26686;50.130;8.710;2023-07-22T17:48:11;99733.53;;;24.15;34.28
40954;BME280;26686;50.130;8.710;2023-07-22T17:53:13;99709.81;;;24.04;34.02
40954;BME280;26686;50.130;8.710;2023-07-22T17:58:15;99725.44;;;24.08;33.48
40954;BME280;26686;50.130;8.710;2023-07-22T18:03:16;99729.91;;;24.03;33.93
40954;BME280;26686;50.130;8.710;2023-07-22T18:08:18;99730.56;;;23.98;33.80
40954;BME280;26686;50.130;8.710;2023-07-22T18:13:23;99723.31;;;23.92;34.14
40954;BME280;26686;50.130;8.710;2023-07-22T18:18:24;99721.28;;;23.87;34.30
40954;BME280;26686;50.130;8.710;2023-07-22T18:23:25;99725.03;;;23.86;34.91
40954;BME280;26686;50.130;8.710;2023-07-22T18:28:27;99716.72;;;23.81;34.82
40954;BME280;26686;50.130;8.710;2023-07-22T18:33:29;99737.00;;;23.78;34.63
40954;BME280;26686;50.130;8.710;2023-07-22T18:38:30;99730.56;;;23.73;34.39
40954;BME280;26686;50.130;8.710;2023-07-22T18:43:31;99732.69;;;23.71;34.14
40954;BME280;26686;50.130;8.710;2023-07-22T18:48:33;99722.72;;;23.64;34.80
40954;BME280;26686;50.130;8.710;2023-07-22T18:53:34;99731.91;;;23.63;35.25
40954;BME280;26686;50.130;8.710;2023-07-22T18:58:36;99731.91;;;23.63;35.15
40954;BME280;26686;50.130;8.710;2023-07-22T19:03:37;99729.84;;;23.59;35.47
40954;BME280;26686;50.130;8.710;2023-07-22T19:08:39;99737.22;;;23.52;35.84
40954;BME280;26686;50.130;8.710;2023-07-22T19:13:40;99742.88;;;23.50;35.54
40954;BME280;26686;50.130;8.710;2023-07-22T19:18:41;99739.56;;;23.48;36.36
40954;BME280;26686;50.130;8.710;2023-07-22T19:23:43;99745.44;;;23.45;36.70
40954;BME280;26686;50.130;8.710;2023-07-22T19:28:45;99746.72;;;23.36;36.74
40954;BME280;26686;50.130;8.710;2023-07-22T19:33:46;99751.56;;;23.34;36.94
40954;BME280;26686;50.130;8.710;2023-07-22T19:38:48;99758.03;;;23.33;37.17
40954;BME280;26686;50.130;8.710;2023-07-22T19:43:49;99738.88;;;23.27;37.55
40954;BME280;26686;50.130;8.710;2023-07-22T19:48:51;99751.41;;;23.22;37.71
40954;BME280;26686;50.130;8.710;2023-07-22T19:53:52;99760.16;;;23.24;37.70
40954;BME280;26686;50.130;8.710;2023-07-22T19:58:53;99753.31;;;23.21;37.60
40954;BME280;26686;50.130;8.710;2023-07-22T20:03:55;99753.31;;;23.21;37.91
40954;BME280;26686;50.130;8.710;2023-07-22T20:08:56;99756.91;;;23.15;37.81
40954;BME280;26686;50.130;8.710;2023-07-22T20:13:58;99768.97;;;23.19;37.88
40954;BME280;26686;50.130;8.710;2023-07-22T20:18:59;99761.91;;;23.18;38.14
40954;BME280;26686;50.130;8.710;2023-07-22T20:24:01;99764.41;;;23.13;38.17
40954;BME280;26686;50.130;8.710;2023-07-22T20:29:02;99769.25;;;23.11;37.81
40954;BME280;26686;50.130;8.710;2023-07-22T20:34:03;99777.38;;;23.11;38.35
40954;BME280;26686;50.130;8.710;2023-07-22T20:39:05;99771.97;;;23.11;37.92
40954;BME280;26686;50.130;8.710;2023-07-22T20:44:06;99771.13;;;23.04;38.81
40954;BME280;26686;50.130;8.710;2023-07-22T20:49:08;99768.63;;;23.09;38.90
40954;BME280;26686;50.130;8.710;2023-07-22T20:54:09;99779.47;;;23.09;38.59
40954;BME280;26686;50.130;8.710;2023-07-22T20:59:11;99773.25;;;23.02;39.11
40954;BME280;26686;50.130;8.710;2023-07-22T21:04:12;99775.75;;;22.97;39.03
40954;BME280;26686;50.130;8.710;2023-07-22T21:09:13;99774.50;;;22.99;39.66
40954;BME280;26686;50.130;8.710;2023-07-22T21:14:15;99771.19;;;22.97;39.54
40954;BME280;26686;50.130;8.710;2023-07-22T21:19:17;99775.75;;;22.97;39.56
40954;BME280;26686;50.130;8.710;2023-07-22T21:24:18;99769.72;;;22.94;39.98
40954;BME280;26686;50.130;8.710;2023-07-22T21:29:20;99781.63;;;22.93;39.90
40954;BME280;26686;50.130;8.710;2023-07-22T21:34:21;99777.25;;;22.92;39.99
40954;BME280;26686;50.130;8.710;2023-07-22T21:39:23;99772.44;;;22.88;40.29
40954;BME280;26686;50.130;8.710;2023-07-22T21:44:24;99770.38;;;22.83;39.79
40954;BME280;26686;50.130;8.710;2023-07-22T21:49:26;99771.88;;;22.79;40.35
40954;BME280;26686;50.130;8.710;2023-07-22T21:54:27;99770.66;;;22.75;40.88
40954;BME280;26686;50.130;8.710;2023-07-22T21:59:29;99779.00;;;22.73;41.25
40954;BME280;26686;50.130;8.710;2023-07-22T22:04:30;99776.28;;;22.67;40.93
40954;BME280;26686;50.130;8.710;2023-07-22T22:09:31;99771.31;;;22.64;41.37
40954;BME280;26686;50.130;8.710;2023-07-22T22:14:33;99763.00;;;22.58;41.26
40954;BME280;26686;50.130;8.710;2023-07-22T22:19:34;99768.41;;;22.58;41.15
40954;BME280;26686;50.130;8.710;2023-07-22T22:24:36;99771.34;;;22.57;41.33
40954;BME280;26686;50.130;8.710;2023-07-22T22:29:37;99768.22;;;22.53;41.43
40954;BME280;26686;50.130;8.710;2023-07-22T22:34:39;99776.78;;;22.50;41.35
40954;BME280;26686;50.130;8.710;2023-07-22T22:39:41;99776.16;;;22.48;41.10
40954;BME280;26686;50.130;8.710;2023-07-22T22:44:42;99762.63;;;22.41;41.04
40954;BME280;26686;50.130;8.710;2023-07-22T22:49:46;99769.28;;;22.46;43.54
40954;BME280;26686;50.130;8.710;2023-07-22T22:54:48;99771.38;;;22.44;43.29
40954;BME280;26686;50.130;8.710;2023-07-22T22:59:50;99781.41;;;22.43;43.32
40954;BME280;26686;50.130;8.710;2023-07-22T23:04:51;99770.97;;;22.40;44.05
40954;BME280;26686;50.130;8.710;2023-07-22T23:09:52;99771.81;;;22.34;44.17
40954;BME280;26686;50.130;8.710;2023-07-22T23:14:55;99752.63;;;22.29;44.54
40954;BME280;26686;50.130;8.710;2023-07-22T23:19:56;99748.47;;;22.19;44.68
40954;BME280;26686;50.130;8.710;2023-07-22T23:24:58;99755.16;;;22.17;44.64
40954;BME280;26686;50.130;8.710;2023-07-22T23:29:59;99757.88;;;22.10;45.16
40954;BME280;26686;50.130;8.710;2023-07-22T23:35:05;99759.94;;;22.08;44.76
40954;BME280;26686;50.130;8.710;2023-07-22T23:40:07;99740.56;;;21.98;45.17
40954;BME280;26686;50.130;8.710;2023-07-22T23:45:09;99747.88;;;21.97;45.29
40954;BME280;26686;50.130;8.710;2023-07-22T23:50:10;99744.78;;;21.94;46.23
40954;BME280;26686;50.130;8.710;2023-07-22T23:55:12;99745.59;;;21.94;45.77
